Time;durP1;ratioP1;P1;durP2;ratioP2;P2;SDS_P1;SDS_P2;PMS_P1;PMS_P2;Temp;Humidity;BMP_temperature;BMP_pressure;BME280_temperature;BME280_humidity;BME280_pressure;Samples;Min_cycle;Max_cycle;Signal;HPM_P1;HPM_P2
2022/07/01 00:01:49;;;;;;;4.90;3.23;;;21.40;99.90;;;;;;4956669;28;20267;-59
2022/07/01 00:04:19;;;;;;;4.13;3.60;;;21.40;99.90;;;;;;4957266;29;20715;-59
2022/07/01 00:06:47;;;;;;;5.03;3.53;;;21.30;99.90;;;;;;4956935;29;20220;-59
2022/07/01 00:09:16;;;;;;;5.73;3.47;;;21.20;99.90;;;;;;4957006;29;20224;-60
2022/07/01 00:11:45;;;;;;;4.73;3.63;;;21.10;99.90;;;;;;4952280;29;21208;-60
2022/07/01 00:14:14;;;;;;;5.97;3.73;;;21.10;99.90;;;;;;4937406;29;20228;-59
2022/07/01 00:16:42;;;;;;;5.97;3.70;;;21.00;99.90;;;;;;4920427;29;20385;-59
2022/07/01 00:19:11;;;;;;;5.77;3.93;;;21.00;99.90;;;;;;4938022;29;20231;-58
2022/07/01 00:21:40;;;;;;;6.53;3.70;;;21.00;99.90;;;;;;4937265;29;20270;-59
2022/07/01 00:24:09;;;;;;;5.83;3.80;;;20.90;99.90;;;;;;4946615;29;20282;-59
2022/07/01 00:26:37;;;;;;;6.60;3.73;;;20.70;99.90;;;;;;4937511;29;20232;-59
2022/07/01 00:29:05;;;;;;;4.30;3.63;;;20.70;99.90;;;;;;4937354;29;20243;-59
2022/07/01 00:31:35;;;;;;;4.97;3.60;;;20.70;99.90;;;;;;4936782;29;20239;-59
2022/07/01 00:34:03;;;;;;;6.37;3.20;;;20.80;99.90;;;;;;4937554;29;20778;-57
2022/07/01 00:36:32;;;;;;;3.63;3.20;;;20.80;99.90;;;;;;4937146;29;20239;-59
2022/07/01 00:39:01;;;;;;;4.47;3.40;;;20.70;99.90;;;;;;4937241;29;20228;-59
2022/07/01 00:41:30;;;;;;;3.10;2.83;;;20.80;99.90;;;;;;4940235;29;20251;-60
2022/07/01 00:43:58;;;;;;;5.50;3.10;;;20.70;99.90;;;;;;4937027;29;20236;-60
2022/07/01 00:46:27;;;;;;;4.33;3.53;;;20.80;99.90;;;;;;4937271;29;20241;-59
2022/07/01 00:48:58;;;;;;;4.33;3.37;;;20.70;99.90;;;;;;4937515;29;20688;-59
2022/07/01 00:51:27;;;;;;;4.63;3.47;;;20.70;99.90;;;;;;4936830;29;20236;-57
2022/07/01 00:53:58;;;;;;;4.37;3.33;;;20.70;99.90;;;;;;4943767;29;20240;-59
2022/07/01 00:56:28;;;;;;;4.37;3.40;;;20.70;99.90;;;;;;4938196;29;20766;-59
2022/07/01 00:58:57;;;;;;;5.27;3.10;;;20.60;99.90;;;;;;4937136;29;20228;-59
2022/07/01 01:01:25;;;;;;;5.13;4.30;;;20.50;99.90;;;;;;4936483;29;20746;-59
2022/07/01 01:03:54;;;;;;;3.90;3.50;;;20.30;99.90;;;;;;4936689;29;20231;-59
2022/07/01 01:06:23;;;;;;;5.40;3.70;;;20.20;99.90;;;;;;4939080;29;20700;-59
2022/07/01 01:08:51;;;;;;;6.67;3.77;;;20.30;99.90;;;;;;4936699;29;20228;-59
2022/07/01 01:11:20;;;;;;;5.00;3.57;;;20.30;99.90;;;;;;4941024;28;20239;-59
2022/07/01 01:13:50;;;;;;;6.60;3.80;;;20.30;99.90;;;;;;4955205;29;20326;-59
2022/07/01 01:16:20;;;;;;;4.93;3.33;;;20.30;99.90;;;;;;4955918;29;20237;-59
2022/07/01 01:18:48;;;;;;;7.03;3.83;;;20.20;99.90;;;;;;4955099;29;20227;-59
2022/07/01 01:21:19;;;;;;;6.40;3.93;;;20.30;99.90;;;;;;4946162;29;20580;-59
2022/07/01 01:23:47;;;;;;;6.73;4.23;;;20.30;99.90;;;;;;4942201;29;20223;-58
2022/07/01 01:26:18;;;;;;;7.20;4.43;;;20.20;99.90;;;;;;4939085;29;20717;-59
2022/07/01 01:28:46;;;;;;;5.80;4.00;;;20.30;99.90;;;;;;4936151;29;20239;-59
2022/07/01 01:31:14;;;;;;;7.03;3.70;;;20.20;99.90;;;;;;4936014;29;20727;-60
2022/07/01 01:33:43;;;;;;;5.87;3.80;;;20.10;99.90;;;;;;4936251;29;20788;-59
2022/07/01 01:36:12;;;;;;;5.17;3.50;;;20.10;99.90;;;;;;4936271;29;20268;-58
2022/07/01 01:38:41;;;;;;;4.17;3.67;;;20.10;99.90;;;;;;4936022;29;20695;-59
2022/07/01 01:41:10;;;;;;;4.80;3.63;;;20.10;99.90;;;;;;4939381;29;20235;-58
2022/07/01 01:43:38;;;;;;;6.03;3.80;;;20.10;99.90;;;;;;4955276;29;20254;-59
2022/07/01 01:46:07;;;;;;;5.13;3.60;;;20.10;99.90;;;;;;4955197;29;20262;-60
2022/07/01 01:48:36;;;;;;;4.67;3.83;;;20.10;99.90;;;;;;4955149;29;20235;-61
2022/07/01 01:51:04;;;;;;;6.53;4.20;;;20.10;99.90;;;;;;4955135;29;20251;-60
2022/07/01 01:53:33;;;;;;;5.70;4.03;;;20.20;99.90;;;;;;4947185;29;20224;-59
2022/07/01 01:56:03;;;;;;;5.30;4.13;;;20.20;99.90;;;;;;4940661;29;20655;-59
2022/07/01 01:58:31;;;;;;;5.30;4.80;;;20.10;99.90;;;;;;4935963;29;20243;-59
2022/07/01 02:00:59;;;;;;;5.10;4.60;;;20.10;99.90;;;;;;4937015;29;20251;-59
2022/07/01 02:03:28;;;;;;;6.70;4.83;;;20.10;99.90;;;;;;4945295;29;20216;-59
2022/07/01 02:05:56;;;;;;;5.50;5.00;;;20.00;99.90;;;;;;4941101;29;20315;-58
2022/07/01 02:08:25;;;;;;;5.33;4.83;;;20.00;99.90;;;;;;4935705;29;20238;-59
2022/07/01 02:10:53;;;;;;;5.80;5.00;;;20.00;99.90;;;;;;4936664;29;20275;-59
2022/07/01 02:13:27;;;;;;;5.10;4.60;;;20.00;99.90;;;;;;4953049;29;20714;-58
2022/07/01 02:15:56;;;;;;;5.97;5.37;;;20.00;99.90;;;;;;4955111;29;20269;-58
2022/07/01 02:18:25;;;;;;;6.40;5.47;;;20.00;99.90;;;;;;4954662;29;20238;-59
2022/07/01 02:20:53;;;;;;;6.00;5.40;;;20.00;99.90;;;;;;4954551;28;20230;-59
2022/07/01 02:23:21;;;;;;;6.40;5.80;;;20.00;99.90;;;;;;4946041;29;20236;-59
2022/07/01 02:25:49;;;;;;;8.53;6.13;;;19.90;99.90;;;;;;4941468;29;20718;-59
2022/07/01 02:28:18;;;;;;;8.03;6.60;;;19.90;99.90;;;;;;4935825;29;20740;-59
2022/07/01 02:30:47;;;;;;;8.80;6.63;;;20.00;99.90;;;;;;4935143;29;20244;-59
2022/07/01 02:33:16;;;;;;;8.90;8.00;;;19.90;99.90;;;;;;4935373;29;20246;-59
2022/07/01 02:35:44;;;;;;;8.47;7.67;;;20.00;99.90;;;;;;4935508;29;20721;-58
2022/07/01 02:38:16;;;;;;;7.97;7.20;;;20.00;99.90;;;;;;4935426;29;20223;-59
2022/07/01 02:40:44;;;;;;;8.10;7.30;;;19.90;99.90;;;;;;4935216;29;20243;-58
2022/07/01 02:43:13;;;;;;;8.13;7.33;;;19.90;99.90;;;;;;4934956;29;20257;-59
2022/07/01 02:45:41;;;;;;;9.30;7.40;;;19.90;99.90;;;;;;4935140;29;20325;-58
2022/07/01 02:48:11;;;;;;;7.93;7.00;;;19.90;99.90;;;;;;4935574;29;20246;-58
2022/07/01 02:50:39;;;;;;;7.77;6.70;;;19.80;99.90;;;;;;4935504;29;20695;-59
2022/07/01 02:53:08;;;;;;;7.30;6.63;;;19.80;99.90;;;;;;4944377;29;20782;-59
2022/07/01 02:55:36;;;;;;;8.63;6.13;;;19.80;99.90;;;;;;4946101;29;20283;-59
2022/07/01 02:58:04;;;;;;;6.90;6.23;;;19.70;99.90;;;;;;4954656;29;20242;-59
2022/07/01 03:00:32;;;;;;;7.57;6.43;;;19.70;99.90;;;;;;4954054;29;20277;-59
2022/07/01 03:03:01;;;;;;;6.90;6.30;;;19.60;99.90;;;;;;4954208;29;20321;-60
2022/07/01 03:05:30;;;;;;;7.80;6.97;;;19.70;99.90;;;;;;4954116;29;20226;-59
2022/07/01 03:07:58;;;;;;;8.57;7.43;;;19.60;99.90;;;;;;4954214;29;20324;-60
2022/07/01 03:10:27;;;;;;;7.90;7.17;;;19.60;99.90;;;;;;4954086;29;20236;-58
2022/07/01 03:12:58;;;;;;;8.40;7.60;;;19.60;99.90;;;;;;4954194;29;20223;-59
2022/07/01 03:15:26;;;;;;;11.20;8.10;;;19.60;99.90;;;;;;4951111;29;20703;-58
2022/07/01 03:17:54;;;;;;;8.27;7.47;;;19.60;99.90;;;;;;4954007;29;20217;-59
2022/07/01 03:20:23;;;;;;;9.20;7.53;;;19.60;99.90;;;;;;4954073;29;20231;-60
2022/07/01 03:22:52;;;;;;;10.10;9.07;;;19.60;99.90;;;;;;4954185;29;20227;-60
2022/07/01 03:25:20;;;;;;;9.50;8.57;;;19.60;99.90;;;;;;4946297;29;20591;-60
2022/07/01 03:27:48;;;;;;;11.03;8.67;;;19.50;99.90;;;;;;4954066;29;20310;-59
2022/07/01 03:30:17;;;;;;;9.57;8.60;;;19.40;99.90;;;;;;4953617;29;20266;-60
2022/07/01 03:32:46;;;;;;;9.03;7.53;;;19.40;99.90;;;;;;4954083;29;20373;-59
2022/07/01 03:38:03;;;;;;;8.80;6.60;;;19.30;99.90;;;;;;4957730;29;20258;-59
2022/07/01 03:40:31;;;;;;;10.10;7.50;;;19.20;99.90;;;;;;4957165;29;20234;-60
2022/07/01 03:42:59;;;;;;;8.80;7.60;;;19.20;99.90;;;;;;4957038;29;20246;-60
2022/07/01 03:45:27;;;;;;;7.97;7.00;;;19.20;99.90;;;;;;4957068;29;20227;-59
2022/07/01 03:47:56;;;;;;;11.27;7.17;;;19.10;99.90;;;;;;4957362;29;20219;-60
2022/07/01 03:50:25;;;;;;;13.13;7.50;;;19.00;99.90;;;;;;4957591;29;20302;-59
2022/07/01 03:55:37;;;;;;;10.20;6.33;;;19.10;99.90;;;;;;4948873;29;20238;-59
2022/07/01 03:58:06;;;;;;;14.17;6.57;;;19.10;99.90;;;;;;4957448;29;20239;-59
2022/07/01 04:00:36;;;;;;;12.03;6.13;;;19.10;99.90;;;;;;4956482;29;20269;-58
2022/07/01 04:03:05;;;;;;;14.20;6.77;;;19.00;99.90;;;;;;4957060;29;20642;-59
2022/07/01 04:05:35;;;;;;;12.27;5.53;;;19.00;99.90;;;;;;4956863;29;20230;-60
2022/07/01 04:08:05;;;;;;;14.67;5.77;;;19.00;99.90;;;;;;4956877;29;20349;-59
2022/07/01 04:10:34;;;;;;;15.33;5.90;;;19.00;99.90;;;;;;4945078;29;20230;-59
2022/07/01 04:13:04;;;;;;;11.87;5.03;;;18.90;99.90;;;;;;4942041;29;20266;-59
2022/07/01 04:15:52;;;;;;;16.10;5.57;;;18.90;99.90;;;;;;4937495;29;20338;-59
2022/07/01 04:18:21;;;;;;;10.30;5.00;;;18.90;99.90;;;;;;4937604;29;20235;-60
2022/07/01 04:23:33;;;;;;;15.63;5.93;;;18.90;99.90;;;;;;4955184;29;20238;-61
2022/07/01 04:26:02;;;;;;;8.57;4.60;;;18.80;99.90;;;;;;4956647;29;20231;-62
2022/07/01 04:28:51;;;;;;;10.73;5.50;;;18.80;99.90;;;;;;4956553;29;20231;-61
2022/07/01 04:31:20;;;;;;;8.77;5.17;;;18.70;99.90;;;;;;4973834;28;20241;-61
2022/07/01 04:33:49;;;;;;;8.07;5.03;;;18.70;99.90;;;;;;4975913;28;20225;-61
2022/07/01 04:36:17;;;;;;;12.43;5.07;;;18.70;99.90;;;;;;4976006;28;20593;-60
2022/07/01 04:38:45;;;;;;;12.03;4.77;;;18.60;99.90;;;;;;4975861;28;20333;-61
2022/07/01 04:44:01;;;;;;;9.97;4.57;;;18.50;99.90;;;;;;4937278;29;20587;-61
2022/07/01 04:46:29;;;;;;;11.30;4.30;;;18.50;99.90;;;;;;4936441;29;20236;-61
2022/07/01 04:48:57;;;;;;;9.93;4.40;;;18.50;99.90;;;;;;4937296;29;20237;-60
2022/07/01 04:51:26;;;;;;;10.90;4.50;;;18.50;99.90;;;;;;4937158;29;20229;-60
2022/07/01 04:53:54;;;;;;;8.93;3.93;;;18.40;99.90;;;;;;4937338;29;20239;-61
2022/07/01 04:56:22;;;;;;;9.23;3.60;;;18.40;99.90;;;;;;4937139;29;20636;-61
2022/07/01 04:58:50;;;;;;;10.00;3.60;;;18.40;99.90;;;;;;4936803;29;20289;-61
2022/07/01 05:01:20;;;;;;;8.93;2.63;;;18.30;99.90;;;;;;4947986;29;20243;-61
2022/07/01 05:03:48;;;;;;;7.73;2.90;;;18.30;99.90;;;;;;4955755;29;20221;-61
2022/07/01 05:06:16;;;;;;;8.03;2.47;;;18.20;99.90;;;;;;4955254;29;20225;-60
2022/07/01 05:08:45;;;;;;;7.80;2.23;;;18.20;99.90;;;;;;4947819;29;20761;-61
2022/07/01 05:11:13;;;;;;;5.83;2.10;;;18.20;99.90;;;;;;4955025;29;20234;-61
2022/07/01 05:13:42;;;;;;;6.80;1.83;;;18.20;99.90;;;;;;4936272;29;20308;-61
2022/07/01 05:16:10;;;;;;;6.37;1.70;;;18.10;99.90;;;;;;4938930;29;20250;-61
2022/07/01 05:24:11;;;;;;;5.90;1.60;;;18.10;99.90;;;;;;4939580;29;20233;-61
2022/07/01 05:26:40;;;;;;;9.10;2.00;;;18.00;99.90;;;;;;4936555;29;20227;-61
2022/07/01 05:29:08;;;;;;;7.37;1.70;;;18.10;99.90;;;;;;4936344;29;20226;-60
2022/07/01 05:31:36;;;;;;;5.73;1.80;;;18.00;99.90;;;;;;4953778;28;20261;-61
2022/07/01 05:34:06;;;;;;;4.90;1.87;;;18.10;99.90;;;;;;4973714;28;20597;-61
2022/07/01 05:36:35;;;;;;;5.67;2.10;;;18.00;99.90;;;;;;4974439;28;20237;-61
2022/07/01 05:39:04;;;;;;;5.40;2.07;;;18.00;99.90;;;;;;4974635;28;20258;-61
2022/07/01 05:41:34;;;;;;;6.20;2.17;;;18.00;99.90;;;;;;4964685;28;20241;-60
2022/07/01 05:44:02;;;;;;;6.43;2.10;;;17.90;99.90;;;;;;4936209;29;20234;-61
2022/07/01 05:46:30;;;;;;;7.77;2.83;;;18.00;99.90;;;;;;4935846;29;20234;-61
2022/07/01 05:48:58;;;;;;;9.30;2.70;;;18.00;99.90;;;;;;4936250;29;20730;-61
2022/07/01 05:51:28;;;;;;;5.47;1.97;;;17.90;99.90;;;;;;4936072;29;20330;-61
2022/07/01 05:53:57;;;;;;;6.37;2.20;;;17.90;99.90;;;;;;4918854;29;20598;-60
2022/07/01 05:56:26;;;;;;;3.80;2.00;;;17.90;99.90;;;;;;4936118;29;20236;-58
2022/07/01 05:58:54;;;;;;;5.73;2.10;;;17.80;99.90;;;;;;4936082;29;20726;-60
2022/07/01 06:01:23;;;;;;;5.13;2.30;;;17.80;99.90;;;;;;4936518;29;20245;-61
2022/07/01 06:03:51;;;;;;;4.30;2.00;;;17.80;99.90;;;;;;4942571;29;20229;-61
2022/07/01 06:06:19;;;;;;;4.83;2.13;;;17.80;99.90;;;;;;4935985;29;20266;-61
2022/07/01 06:08:49;;;;;;;5.10;2.30;;;17.80;99.90;;;;;;4935768;29;20276;-60
2022/07/01 06:11:17;;;;;;;6.27;1.90;;;17.70;99.90;;;;;;4940099;29;20325;-60
2022/07/01 06:13:45;;;;;;;3.97;1.70;;;17.70;99.90;;;;;;4957463;28;20229;-60
2022/07/01 06:16:13;;;;;;;5.20;1.70;;;17.70;99.90;;;;;;4955140;29;20241;-60
2022/07/01 06:18:42;;;;;;;3.40;1.60;;;17.70;99.90;;;;;;4954933;29;20224;-60
2022/07/01 06:21:10;;;;;;;4.87;1.60;;;17.70;99.90;;;;;;4954715;29;20228;-60
2022/07/01 06:23:38;;;;;;;3.57;1.50;;;17.70;99.90;;;;;;4951394;29;20226;-60
2022/07/01 06:26:08;;;;;;;2.53;1.40;;;17.70;99.90;;;;;;4944372;29;20707;-60
2022/07/01 06:28:36;;;;;;;3.43;1.60;;;17.60;99.90;;;;;;4947507;29;20230;-61
2022/07/01 06:31:04;;;;;;;4.03;1.43;;;17.60;99.90;;;;;;4949966;29;20606;-61
2022/07/01 06:33:32;;;;;;;2.77;1.70;;;17.60;99.90;;;;;;4954804;29;20220;-59
2022/07/01 06:36:01;;;;;;;3.43;2.17;;;17.60;99.90;;;;;;4954736;29;20731;-61
2022/07/01 06:38:30;;;;;;;4.97;1.20;;;17.60;99.90;;;;;;4954480;29;20232;-59
2022/07/01 06:43:46;;;;;;;2.17;1.20;;;17.60;99.90;;;;;;4921692;29;20227;-60
2022/07/01 06:46:14;;;;;;;3.53;1.40;;;17.60;99.90;;;;;;4926299;29;20224;-61
2022/07/01 06:48:42;;;;;;;1.27;1.00;;;17.70;99.90;;;;;;4925112;29;20311;-60
2022/07/01 06:51:10;;;;;;;1.70;1.20;;;17.60;99.90;;;;;;4923323;29;20708;-61
2022/07/01 06:53:39;;;;;;;2.03;1.50;;;17.60;99.90;;;;;;4926222;29;20742;-61
2022/07/01 06:56:07;;;;;;;2.93;1.30;;;17.60;99.90;;;;;;4926098;29;20312;-60
2022/07/01 06:58:35;;;;;;;1.73;1.40;;;17.50;99.90;;;;;;4923035;29;20231;-60
2022/07/01 07:01:05;;;;;;;3.23;1.40;;;17.60;99.90;;;;;;4922965;29;20311;-60
2022/07/01 07:03:33;;;;;;;2.33;1.50;;;17.60;99.90;;;;;;4923675;29;20230;-61
2022/07/01 07:06:02;;;;;;;2.30;1.70;;;17.60;99.90;;;;;;4926184;29;20233;-60
2022/07/01 07:08:31;;;;;;;4.67;1.33;;;17.60;99.90;;;;;;4924784;29;20728;-60
2022/07/01 07:11:00;;;;;;;1.87;1.57;;;17.60;99.90;;;;;;4928551;29;20266;-59
2022/07/01 07:13:28;;;;;;;3.40;1.50;;;17.70;99.90;;;;;;4928045;29;20224;-60
2022/07/01 07:15:56;;;;;;;2.30;1.53;;;17.70;99.90;;;;;;4927383;29;20233;-61
2022/07/01 07:18:26;;;;;;;2.83;1.77;;;17.70;99.90;;;;;;4927461;29;20229;-59
2022/07/01 07:20:54;;;;;;;2.57;1.70;;;17.70;99.90;;;;;;4923008;29;20704;-60
2022/07/01 07:23:27;;;;;;;2.70;1.60;;;17.70;99.90;;;;;;4938764;29;20235;-60
2022/07/01 07:25:56;;;;;;;3.57;1.70;;;17.70;99.90;;;;;;4938530;29;20233;-61
2022/07/01 07:28:24;;;;;;;2.87;1.60;;;17.70;99.90;;;;;;4935583;29;20587;-59
2022/07/01 07:30:52;;;;;;;1.83;1.50;;;17.70;99.90;;;;;;4932671;29;20272;-61
2022/07/01 07:33:21;;;;;;;3.40;1.70;;;17.70;99.90;;;;;;4929208;29;20763;-61
2022/07/01 07:35:50;;;;;;;2.33;1.50;;;17.80;99.90;;;;;;4919323;29;20230;-60
2022/07/01 07:38:19;;;;;;;2.03;1.50;;;17.90;99.90;;;;;;4919755;29;20222;-62
2022/07/01 07:40:47;;;;;;;2.90;1.80;;;17.90;99.90;;;;;;4919484;29;20230;-61
2022/07/01 07:43:16;;;;;;;3.60;1.90;;;17.90;99.90;;;;;;4931757;29;20256;-61
2022/07/01 07:45:44;;;;;;;3.50;1.87;;;17.90;99.90;;;;;;4931155;29;20228;-60
2022/07/01 07:48:12;;;;;;;3.33;1.90;;;17.90;99.90;;;;;;4919450;29;20229;-61
2022/07/01 07:50:41;;;;;;;5.67;2.23;;;18.00;99.90;;;;;;4919891;29;20241;-60
2022/07/01 07:53:11;;;;;;;2.03;1.60;;;17.90;99.90;;;;;;4930535;29;20237;-60
2022/07/01 07:55:40;;;;;;;2.20;1.70;;;18.00;99.90;;;;;;4927762;29;20232;-61
2022/07/01 07:58:08;;;;;;;2.00;1.80;;;18.10;99.90;;;;;;4929446;29;20588;-61
2022/07/01 08:00:37;;;;;;;2.60;1.80;;;18.20;99.90;;;;;;4922821;29;20250;-60
2022/07/01 08:03:08;;;;;;;2.50;1.70;;;18.30;99.90;;;;;;4931732;29;20340;-57
2022/07/01 08:05:36;;;;;;;2.23;1.57;;;18.40;99.90;;;;;;4929315;29;20588;-61
2022/07/01 08:08:05;;;;;;;2.67;1.53;;;18.50;99.90;;;;;;4930289;29;20229;-60
2022/07/01 08:10:35;;;;;;;1.60;1.43;;;18.50;99.90;;;;;;4926021;29;20286;-55
2022/07/01 08:13:05;;;;;;;1.73;1.43;;;18.50;99.90;;;;;;4924767;29;20302;-61
2022/07/01 08:15:34;;;;;;;1.57;1.47;;;18.40;99.90;;;;;;4921171;29;20593;-61
2022/07/01 08:18:02;;;;;;;1.73;1.63;;;18.40;99.90;;;;;;4922228;29;20231;-61
2022/07/01 08:20:31;;;;;;;5.10;2.10;;;18.50;99.90;;;;;;4918459;29;20687;-61
2022/07/01 08:22:59;;;;;;;3.10;1.87;;;18.50;99.90;;;;;;4917362;29;20247;-61
2022/07/01 08:25:27;;;;;;;3.30;2.10;;;18.60;99.90;;;;;;4918632;29;20278;-60
2022/07/01 08:28:04;;;;;;;3.33;1.93;;;18.50;99.90;;;;;;4918483;29;20222;-61
2022/07/01 08:30:33;;;;;;;2.00;1.50;;;18.40;99.90;;;;;;4920977;29;20250;-61
2022/07/01 08:33:01;;;;;;;2.40;1.73;;;18.40;99.90;;;;;;4918666;29;20237;-61
2022/07/01 08:35:30;;;;;;;2.63;1.87;;;18.20;99.90;;;;;;4932442;29;20701;-61
2022/07/01 08:37:59;;;;;;;2.97;2.17;;;18.10;99.90;;;;;;4923746;29;20714;-59
2022/07/01 08:40:27;;;;;;;2.87;2.20;;;18.00;99.90;;;;;;4930173;29;20239;-60
2022/07/01 08:42:57;;;;;;;3.47;2.17;;;17.90;99.90;;;;;;4950810;29;20257;-61
2022/07/01 08:45:31;;;;;;;3.97;2.10;;;17.90;99.90;;;;;;4956194;29;20267;-60
2022/07/01 08:48:01;;;;;;;3.00;2.20;;;17.90;99.90;;;;;;4956591;29;20747;-61
2022/07/01 08:50:31;;;;;;;2.53;2.00;;;17.90;99.90;;;;;;4953632;29;20232;-60
2022/07/01 08:52:59;;;;;;;3.63;1.97;;;17.90;99.90;;;;;;4956167;29;20237;-61
2022/07/01 08:55:28;;;;;;;2.73;2.10;;;17.90;99.90;;;;;;4956323;29;20266;-61
2022/07/01 08:57:56;;;;;;;2.17;1.97;;;17.90;99.90;;;;;;4949567;29;20286;-61
2022/07/01 09:00:32;;;;;;;2.20;2.00;;;17.90;99.90;;;;;;4944389;29;20644;-60
2022/07/01 09:03:02;;;;;;;3.03;2.30;;;17.90;99.90;;;;;;4939808;29;20262;-60
2022/07/01 09:05:32;;;;;;;2.10;1.90;;;17.90;99.90;;;;;;4936631;29;20245;-61
2022/07/01 09:08:02;;;;;;;2.90;2.17;;;17.90;99.90;;;;;;4941109;29;20270;-61
2022/07/01 09:10:34;;;;;;;3.43;1.90;;;17.90;99.90;;;;;;4947155;29;20249;-61
2022/07/01 09:13:07;;;;;;;3.20;2.30;;;18.00;99.90;;;;;;4947981;29;20261;-61
2022/07/01 09:15:38;;;;;;;3.30;1.93;;;18.00;99.90;;;;;;4944439;29;20258;-61
2022/07/01 09:18:11;;;;;;;3.40;2.17;;;18.10;99.90;;;;;;4939324;29;20325;-61
2022/07/01 09:20:41;;;;;;;4.53;2.43;;;18.10;99.90;;;;;;4936608;29;20592;-61
2022/07/01 09:23:11;;;;;;;3.60;2.37;;;18.10;99.90;;;;;;4936578;29;20258;-61
2022/07/01 09:25:43;;;;;;;3.00;2.13;;;18.20;99.90;;;;;;4951296;29;20321;-61
2022/07/01 09:28:23;;;;;;;2.77;2.33;;;18.30;99.90;;;;;;4953772;29;20718;-61
2022/07/01 09:30:56;;;;;;;3.30;2.90;;;18.30;99.90;;;;;;4955231;29;20254;-58
2022/07/01 09:33:26;;;;;;;3.30;2.50;;;18.30;99.90;;;;;;4938896;29;20282;-61
2022/07/01 09:35:56;;;;;;;2.83;2.50;;;18.20;99.90;;;;;;4947704;29;20289;-60
2022/07/01 09:38:25;;;;;;;3.60;2.90;;;18.10;99.90;;;;;;4953142;29;20586;-60
2022/07/01 09:41:02;;;;;;;4.50;2.93;;;18.10;99.90;;;;;;4951579;29;20316;-61
2022/07/01 09:43:32;;;;;;;4.57;2.90;;;18.10;99.90;;;;;;4936491;29;20249;-61
2022/07/01 09:46:03;;;;;;;3.77;2.90;;;18.10;99.90;;;;;;4943915;28;20226;-61
2022/07/01 09:48:45;;;;;;;4.23;2.87;;;18.10;99.90;;;;;;4947181;29;20232;-60
2022/07/01 09:51:15;;;;;;;4.47;3.07;;;18.20;99.90;;;;;;4940390;29;20284;-61
2022/07/01 09:53:44;;;;;;;3.20;2.90;;;18.30;99.90;;;;;;4943067;29;20278;-61
2022/07/01 09:56:12;;;;;;;4.03;2.90;;;18.30;99.90;;;;;;4945000;28;20303;-59
2022/07/01 09:58:42;;;;;;;3.40;3.00;;;18.30;99.90;;;;;;4943893;29;20228;-61
2022/07/01 10:01:14;;;;;;;5.53;3.50;;;18.30;99.90;;;;;;4942495;29;20252;-61
2022/07/01 10:03:43;;;;;;;5.83;3.80;;;18.40;99.90;;;;;;4945827;29;20240;-61
2022/07/01 10:06:35;;;;;;;4.13;3.13;;;18.50;99.90;;;;;;4944533;29;20259;-60
2022/07/01 10:09:13;;;;;;;4.40;3.30;;;18.50;99.90;;;;;;4946891;29;20304;-61
2022/07/01 10:12:02;;;;;;;3.87;3.20;;;18.60;99.90;;;;;;4941425;28;20225;-61
2022/07/01 10:14:32;;;;;;;4.40;3.43;;;18.60;99.90;;;;;;4941719;29;20601;-60
2022/07/01 10:17:01;;;;;;;7.23;4.00;;;18.60;99.90;;;;;;4945650;29;20244;-61
2022/07/01 10:19:32;;;;;;;4.73;3.27;;;18.60;99.90;;;;;;4944003;29;20635;-61
2022/07/01 10:22:21;;;;;;;3.77;3.37;;;18.60;99.90;;;;;;4946078;29;20262;-61
2022/07/01 10:24:49;;;;;;;5.73;4.17;;;18.60;99.90;;;;;;4941445;29;20700;-61
2022/07/01 10:27:22;;;;;;;4.97;3.90;;;18.70;99.90;;;;;;4945130;29;20283;-61
2022/07/01 10:30:10;;;;;;;3.90;3.50;;;18.70;99.90;;;;;;4941708;29;20234;-60
2022/07/01 10:32:48;;;;;;;4.10;3.70;;;18.80;99.90;;;;;;4945259;29;20296;-60
2022/07/01 10:35:38;;;;;;;5.20;3.90;;;18.80;99.90;;;;;;4946165;29;20228;-61
2022/07/01 10:38:12;;;;;;;6.77;4.20;;;18.80;99.90;;;;;;4947437;28;20280;-61
2022/07/01 10:40:46;;;;;;;4.63;4.13;;;18.80;99.90;;;;;;4942748;29;20232;-61
2022/07/01 10:43:17;;;;;;;4.80;3.83;;;18.80;99.90;;;;;;4940736;29;20259;-61
2022/07/01 10:45:56;;;;;;;4.63;3.90;;;18.80;99.90;;;;;;4948199;28;20233;-60
2022/07/01 10:48:26;;;;;;;4.67;4.20;;;18.80;99.90;;;;;;4957008;29;20226;-59
2022/07/01 10:50:54;;;;;;;5.60;4.20;;;18.80;99.90;;;;;;4948934;29;20559;-61
2022/07/01 10:53:22;;;;;;;5.47;4.97;;;18.90;99.90;;;;;;4945413;29;20223;-61
2022/07/01 10:55:52;;;;;;;5.33;4.73;;;18.80;99.90;;;;;;4945351;29;20269;-61
2022/07/01 10:58:37;;;;;;;5.63;4.70;;;18.80;99.90;;;;;;4947166;28;20239;-61
2022/07/01 11:01:05;;;;;;;6.20;4.93;;;18.80;99.90;;;;;;4946399;29;20266;-61
2022/07/01 11:03:39;;;;;;;7.03;5.13;;;18.80;99.90;;;;;;4956779;29;20225;-61
2022/07/01 11:06:08;;;;;;;5.83;5.20;;;18.80;99.90;;;;;;4957843;29;20233;-61
2022/07/01 11:08:37;;;;;;;7.53;4.87;;;18.80;99.90;;;;;;4948707;29;20223;-61
2022/07/01 11:11:05;;;;;;;5.03;4.50;;;18.90;99.90;;;;;;4944790;29;20643;-56
2022/07/01 11:13:36;;;;;;;4.33;3.93;;;19.00;99.90;;;;;;4952234;29;20567;-61
2022/07/01 11:16:05;;;;;;;4.53;4.10;;;19.30;99.90;;;;;;4955052;29;20237;-61
2022/07/01 11:18:33;;;;;;;5.77;4.00;;;19.40;99.90;;;;;;4948866;29;20710;-60
2022/07/01 11:21:09;;;;;;;4.80;3.87;;;19.60;99.90;;;;;;4951672;29;20264;-61
2022/07/01 11:23:38;;;;;;;7.13;4.17;;;19.60;99.90;;;;;;4945201;28;20262;-61
2022/07/01 11:26:24;;;;;;;4.90;4.20;;;19.50;99.90;;;;;;4946599;29;20239;-61
2022/07/01 11:28:52;;;;;;;4.77;4.07;;;19.40;99.90;;;;;;4950410;29;20586;-61
2022/07/01 11:31:30;;;;;;;3.87;3.50;;;19.40;99.90;;;;;;4944294;29;20312;-61
2022/07/01 11:33:59;;;;;;;4.70;3.63;;;19.40;99.90;;;;;;4948513;29;20302;-61
2022/07/01 11:39:24;;;;;;;5.33;3.77;;;19.50;99.90;;;;;;4945180;29;20238;-61
2022/07/01 11:41:57;;;;;;;5.77;4.70;;;19.60;99.90;;;;;;4952602;29;20277;-61
2022/07/01 11:44:30;;;;;;;6.23;4.90;;;19.60;99.90;;;;;;4943281;29;20295;-60
2022/07/01 11:46:59;;;;;;;5.27;4.60;;;19.60;99.90;;;;;;4945914;29;20231;-61
2022/07/01 11:49:27;;;;;;;5.07;4.30;;;19.60;99.90;;;;;;4947388;29;20226;-61
2022/07/01 11:51:59;;;;;;;5.20;4.70;;;19.60;99.90;;;;;;4954412;29;20709;-61
2022/07/01 11:54:27;;;;;;;5.30;4.40;;;19.60;99.90;;;;;;4953675;29;20242;-61
2022/07/01 11:57:07;;;;;;;6.20;4.87;;;19.70;99.90;;;;;;4938134;29;20246;-61
2022/07/01 11:59:38;;;;;;;5.43;4.90;;;19.70;99.90;;;;;;4938123;29;20250;-61
2022/07/01 12:02:08;;;;;;;5.87;5.30;;;19.70;99.90;;;;;;4937789;29;20281;-61
2022/07/01 12:04:36;;;;;;;5.83;4.80;;;19.70;99.90;;;;;;4954094;29;20282;-61
2022/07/01 12:07:06;;;;;;;6.60;4.30;;;19.80;99.90;;;;;;4940181;29;20703;-61
2022/07/01 12:09:35;;;;;;;6.40;5.37;;;19.80;99.90;;;;;;4938259;29;20265;-60
2022/07/01 12:12:05;;;;;;;6.57;5.23;;;19.90;99.90;;;;;;4952134;29;20233;-61
2022/07/01 12:14:35;;;;;;;5.93;5.20;;;19.90;99.90;;;;;;4953515;29;20369;-60
2022/07/01 12:17:08;;;;;;;6.10;5.50;;;20.00;99.90;;;;;;4944070;29;20239;-61
2022/07/01 12:19:40;;;;;;;7.50;5.77;;;20.00;99.90;;;;;;4947979;29;20703;-61
2022/07/01 12:22:12;;;;;;;6.93;5.63;;;20.10;99.90;;;;;;4944462;29;20278;-60
2022/07/01 12:24:41;;;;;;;6.57;5.67;;;20.10;99.90;;;;;;4941519;29;20239;-61
2022/07/01 12:27:10;;;;;;;7.30;5.80;;;20.20;99.90;;;;;;4941369;29;20674;-61
2022/07/01 12:29:54;;;;;;;7.60;5.57;;;20.40;99.90;;;;;;4939812;29;20555;-61
2022/07/01 12:32:24;;;;;;;6.57;5.73;;;20.60;99.90;;;;;;4956029;29;20248;-61
2022/07/01 12:34:54;;;;;;;6.67;5.10;;;20.80;99.90;;;;;;4953810;29;20229;-61
2022/07/01 12:37:31;;;;;;;5.87;5.20;;;21.00;99.90;;;;;;4953774;29;20245;-61
2022/07/01 12:40:01;;;;;;;5.77;5.17;;;21.30;99.90;;;;;;4957944;28;20242;-61
2022/07/01 12:42:31;;;;;;;5.93;5.30;;;21.40;99.90;;;;;;4958703;28;20478;-61
2022/07/01 12:45:01;;;;;;;8.27;6.20;;;21.50;99.90;;;;;;4949119;29;20258;-61
2022/07/01 12:47:31;;;;;;;8.93;6.60;;;21.60;99.90;;;;;;4947721;29;20245;-61
2022/07/01 12:50:15;;;;;;;7.40;5.60;;;21.60;99.90;;;;;;4956523;29;20270;-61
2022/07/01 12:52:57;;;;;;;6.23;5.40;;;21.50;99.90;;;;;;4952452;29;20227;-61
2022/07/01 12:55:26;;;;;;;7.47;6.27;;;21.60;99.90;;;;;;4943114;29;20707;-60
2022/07/01 12:57:58;;;;;;;7.20;6.50;;;21.50;99.90;;;;;;4926122;29;20224;-61
2022/07/01 13:00:27;;;;;;;7.37;6.30;;;21.50;99.90;;;;;;4944840;29;20234;-60
2022/07/01 13:02:57;;;;;;;9.83;6.03;;;21.50;99.90;;;;;;4945991;29;20242;-61
2022/07/01 13:05:26;;;;;;;8.87;6.30;;;21.50;99.90;;;;;;4948387;28;20230;-59
2022/07/01 13:07:55;;;;;;;6.90;6.13;;;21.50;99.90;;;;;;4947214;29;20223;-61
2022/07/01 13:10:24;;;;;;;8.27;6.07;;;21.50;99.90;;;;;;4944987;29;20224;-61
2022/07/01 13:12:52;;;;;;;8.60;6.40;;;21.60;99.90;;;;;;4945644;29;20227;-61
2022/07/01 13:15:21;;;;;;;7.43;6.33;;;21.70;99.90;;;;;;4945137;29;20335;-61
2022/07/01 13:17:50;;;;;;;7.67;6.27;;;21.80;99.90;;;;;;4955171;29;20265;-60
2022/07/01 13:20:19;;;;;;;7.00;6.30;;;21.90;99.90;;;;;;4955617;29;20591;-61
2022/07/01 13:22:48;;;;;;;8.00;6.53;;;21.90;99.90;;;;;;4940745;29;20227;-62